Time;durP1;ratioP1;P1;durP2;ratioP2;P2;SDS_P1;SDS_P2;PMS_P1;PMS_P2;Temp;Humidity;BMP_temperature;BMP_pressure;BME280_temperature;BME280_humidity;BME280_pressure;Samples;Min_cycle;Max_cycle;Signal;HPM_P1;HPM_P2
2021/10/13 00:01:03;;;;;;;1.50;1.13;;;20.60;48.00;;;24.51;31.88;101657.47;5092658;28;20052;-8
2021/10/13 00:03:29;;;;;;;0.98;0.90;;;20.60;48.00;;;24.54;31.93;101667.09;5093217;28;20056;-8
2021/10/13 00:05:54;;;;;;;1.65;1.27;;;20.60;48.00;;;24.53;31.98;101666.25;5092634;28;20393;-8
2021/10/13 00:08:20;;;;;;;1.13;1.02;;;20.50;48.00;;;24.52;32.04;101663.69;5092499;28;20044;-8
2021/10/13 00:10:46;;;;;;;1.65;1.42;;;20.50;48.10;;;24.49;31.89;101656.72;5092511;28;20048;-8
2021/10/13 00:13:14;;;;;;;1.60;1.10;;;20.50;48.00;;;24.51;31.88;101670.00;5092479;28;20059;-8
2021/10/13 00:15:41;;;;;;;0.95;0.80;;;20.50;48.00;;;24.53;32.05;101676.09;5092774;28;20392;-8
2021/10/13 00:18:07;;;;;;;1.30;1.20;;;20.50;48.00;;;24.51;31.85;101670.00;5092372;28;20437;-8
2021/10/13 00:20:33;;;;;;;1.23;1.13;;;20.50;48.00;;;24.50;32.03;101676.28;5092243;28;20075;-8
2021/10/13 00:22:59;;;;;;;1.63;1.13;;;20.50;48.00;;;24.51;31.81;101670.84;5092395;28;20048;-8
2021/10/13 00:25:27;;;;;;;1.38;1.15;;;20.60;48.00;;;24.52;31.83;101680.56;5074297;28;20101;-8
2021/10/13 00:27:53;;;;;;;1.15;1.02;;;20.60;48.00;;;24.53;32.02;101674.28;5092109;28;20096;-8
2021/10/13 00:30:19;;;;;;;1.08;0.98;;;20.50;48.00;;;24.53;32.06;101668.06;5092521;28;20127;-8
2021/10/13 00:32:45;;;;;;;1.45;1.02;;;20.50;48.00;;;24.51;31.87;101667.31;5092054;28;20055;-8
2021/10/13 00:35:11;;;;;;;1.33;1.13;;;20.50;48.00;;;24.51;32.04;101667.31;5092170;28;20078;-8
2021/10/13 00:37:37;;;;;;;1.10;1.00;;;20.50;48.00;;;24.50;32.02;101674.47;5092362;28;20129;-8
2021/10/13 00:40:05;;;;;;;1.50;1.33;;;20.50;47.90;;;24.50;31.95;101669.13;5092061;28;20052;-8
2021/10/13 00:42:31;;;;;;;1.38;1.10;;;20.50;48.00;;;24.49;31.79;101672.78;5092064;28;20055;-8
2021/10/13 00:44:57;;;;;;;1.23;1.13;;;20.50;48.00;;;24.49;31.97;101663.88;5092034;28;20044;-8
2021/10/13 00:47:22;;;;;;;1.63;0.98;;;20.50;48.10;;;24.52;31.90;101666.34;5094664;28;20408;-8
2021/10/13 00:49:48;;;;;;;1.70;1.27;;;20.50;48.00;;;24.53;31.94;101670.75;5095373;28;20476;-8
2021/10/13 00:52:16;;;;;;;0.90;0.90;;;20.60;48.00;;;24.50;32.00;101669.13;5095544;28;20040;-8
2021/10/13 00:54:45;;;;;;;1.25;1.10;;;20.60;48.00;;;24.52;31.85;101669.88;5077423;28;20047;-8
2021/10/13 00:57:12;;;;;;;2.25;1.13;;;20.60;47.90;;;24.53;31.98;101673.44;5095494;28;20044;-8
2021/10/13 00:59:38;;;;;;;1.10;1.00;;;20.60;47.90;;;24.51;31.92;101676.19;5096083;28;20407;-8
2021/10/13 01:02:08;;;;;;;1.10;1.00;;;20.50;48.00;;;24.51;31.76;101676.19;5095863;28;20052;-7
2021/10/13 01:04:47;;;;;;;1.02;0.93;;;20.40;48.10;;;24.52;31.85;101679.72;5095690;28;20040;-8
2021/10/13 01:07:59;;;;;;;1.52;1.30;;;20.50;48.10;;;24.54;31.77;101667.97;5095669;28;20055;-8
2021/10/13 01:10:44;;;;;;;0.98;0.93;;;20.50;48.00;;;24.53;32.01;101674.28;5095255;28;20077;-8
2021/10/13 01:13:23;;;;;;;1.13;1.02;;;20.50;48.00;;;24.52;31.84;101677.88;5095290;28;20055;-8
2021/10/13 01:16:02;;;;;;;1.30;1.20;;;20.50;48.00;;;24.47;31.92;101674.66;5095293;28;20104;-8
2021/10/13 01:18:48;;;;;;;1.40;1.17;;;20.50;48.10;;;24.47;31.79;101672.00;5077413;28;20067;-7
2021/10/13 01:21:58;;;;;;;2.03;1.33;;;20.50;48.10;;;24.52;32.01;101688.59;5095564;28;20040;-8
2021/10/13 01:24:41;;;;;;;0.88;0.88;;;20.50;48.00;;;24.51;31.83;101686.03;5095046;28;20542;-8
2021/10/13 01:27:56;;;;;;;2.38;0.95;;;20.60;47.90;;;24.53;31.99;101686.78;5075566;28;20135;-8
2021/10/13 01:30:24;;;;;;;1.63;1.00;;;20.60;47.90;;;24.50;31.88;101684.31;5095287;28;20060;-8
2021/10/13 01:33:09;;;;;;;2.40;1.40;;;20.60;47.80;;;24.46;32.04;101680.97;5077080;28;20048;-8
2021/10/13 01:35:43;;;;;;;1.50;1.20;;;20.60;47.80;;;24.50;31.92;101687.00;5075009;28;20051;-8
2021/10/13 01:38:16;;;;;;;1.83;1.10;;;20.60;47.90;;;24.51;32.02;101686.88;5077074;28;20074;-8
2021/10/13 01:40:44;;;;;;;1.60;1.33;;;20.60;47.80;;;24.48;31.72;101681.72;5076574;28;20044;-8
2021/10/13 01:43:11;;;;;;;1.98;0.98;;;20.60;47.80;;;24.50;31.77;101681.63;5076614;28;20056;-8
2021/10/13 01:45:39;;;;;;;1.58;0.93;;;20.50;47.90;;;24.47;32.00;101674.66;5094681;28;20510;-8
2021/10/13 01:48:06;;;;;;;1.13;0.98;;;20.50;47.90;;;24.49;31.90;101678.13;5094566;28;20052;-8
2021/10/13 01:50:32;;;;;;;2.20;1.42;;;20.50;47.90;;;24.49;32.01;101683.47;5076160;28;20048;-8
2021/10/13 01:52:59;;;;;;;1.75;1.10;;;20.50;47.90;;;24.49;31.75;101682.59;5094596;28;20044;-8
2021/10/13 01:55:28;;;;;;;1.20;1.02;;;20.50;47.90;;;24.47;31.77;101687.19;5076497;28;20488;-8
2021/10/13 01:57:57;;;;;;;1.08;0.98;;;20.50;47.90;;;24.48;31.86;101694.25;5075939;28;20220;-8
2021/10/13 02:00:25;;;;;;;1.05;1.02;;;20.50;47.90;;;24.51;31.78;101694.06;5095077;28;20052;-8
2021/10/13 02:02:53;;;;;;;1.42;1.00;;;20.50;47.90;;;24.49;31.98;101686.13;5076325;28;20055;-8
2021/10/13 02:05:20;;;;;;;1.48;1.10;;;20.60;47.80;;;24.48;31.80;101692.44;5094440;28;20098;-8
2021/10/13 02:07:47;;;;;;;2.05;1.15;;;20.60;47.90;;;24.48;31.92;101697.78;5075007;28;20493;-8
2021/10/13 02:10:14;;;;;;;0.95;0.95;;;20.50;47.80;;;24.49;31.77;101704.84;5074770;28;20060;-8
2021/10/13 02:12:45;;;;;;;0.98;0.90;;;20.50;47.90;;;24.49;32.00;101701.28;5074130;28;20087;-8
2021/10/13 02:15:14;;;;;;;1.00;0.90;;;20.50;48.00;;;24.50;31.82;101706.53;5094159;28;20078;-8
2021/10/13 02:17:46;;;;;;;1.55;0.90;;;20.50;47.90;;;24.49;31.80;101712.00;5075669;28;20044;-8
2021/10/13 02:20:13;;;;;;;1.35;1.15;;;20.50;47.90;;;24.48;31.81;101716.50;5076087;28;20048;-8
2021/10/13 02:22:43;;;;;;;1.10;1.00;;;20.40;48.00;;;24.47;32.06;101713.91;5094053;28;20051;-8
2021/10/13 02:25:08;;;;;;;1.27;1.10;;;20.50;47.90;;;24.46;32.00;101715.72;5094308;28;20093;-8
2021/10/13 02:27:44;;;;;;;1.27;1.17;;;20.40;48.00;;;24.47;31.93;101719.25;5093621;28;20052;-8
2021/10/13 02:30:10;;;;;;;1.00;0.90;;;20.50;48.00;;;24.45;31.94;101708.66;5074923;28;20107;-8
2021/10/13 02:32:36;;;;;;;1.05;0.95;;;20.50;48.00;;;24.49;31.83;101717.34;5094277;28;20234;-8
2021/10/13 02:35:04;;;;;;;1.30;1.20;;;20.50;47.90;;;24.47;31.91;101719.25;5094061;28;20055;-8
2021/10/13 02:37:30;;;;;;;1.30;1.10;;;20.50;47.80;;;24.47;31.94;101720.09;5093628;28;20048;-8
2021/10/13 02:39:56;;;;;;;1.85;1.20;;;20.60;47.80;;;24.49;31.78;101723.56;5093729;28;20059;-8
2021/10/13 02:42:21;;;;;;;2.10;1.10;;;20.60;47.70;;;24.48;32.02;101716.50;5093795;28;20093;-8
2021/10/13 02:44:47;;;;;;;1.05;0.95;;;20.60;47.70;;;24.51;31.83;101727.00;5093989;28;20450;-8
2021/10/13 02:47:20;;;;;;;1.20;1.10;;;20.70;48.20;;;24.48;32.00;101715.63;5093709;28;20068;-8
2021/10/13 02:50:22;;;;;;;1.33;1.00;;;20.60;47.60;;;24.49;31.92;101720.88;5075564;28;20056;-8
2021/10/13 02:53:15;;;;;;;1.23;1.13;;;20.70;47.60;;;24.54;31.86;101724.13;5074687;28;20052;-8
2021/10/13 02:55:55;;;;;;;1.10;0.98;;;20.70;47.50;;;24.53;32.02;101722.41;5093828;28;20055;-8
2021/10/13 02:58:31;;;;;;;1.23;1.13;;;20.70;47.40;;;24.54;31.80;101713.44;5075468;28;20074;-8
2021/10/13 03:01:00;;;;;;;1.50;0.90;;;20.70;47.40;;;24.56;31.81;101716.91;5075841;28;20051;-8
2021/10/13 03:03:35;;;;;;;1.30;1.10;;;20.70;47.50;;;24.56;31.81;101714.22;5075381;28;20044;-8
2021/10/13 03:06:03;;;;;;;1.20;1.10;;;20.60;47.60;;;24.57;31.86;101715.94;5073974;28;20136;-7
2021/10/13 03:08:32;;;;;;;1.00;0.90;;;20.60;47.70;;;24.59;31.83;101721.16;5093069;28;20047;-7
2021/10/13 03:11:00;;;;;;;1.20;1.05;;;20.70;47.80;;;24.59;31.90;101721.16;5074583;28;20044;-8
2021/10/13 03:13:32;;;;;;;0.98;0.88;;;20.60;47.70;;;24.59;31.93;101714.03;5075230;28;20480;-8
2021/10/13 03:16:02;;;;;;;1.60;1.10;;;20.60;47.70;;;24.61;31.88;101716.59;5093488;28;20040;-8
2021/10/13 03:18:29;;;;;;;1.77;1.15;;;20.70;47.60;;;24.63;31.81;101720.03;5093246;28;20399;-8
2021/10/13 03:20:55;;;;;;;1.25;1.15;;;20.70;47.60;;;24.67;31.69;101718.03;5058323;28;20451;-8
2021/10/13 03:23:22;;;;;;;1.15;1.05;;;20.70;47.50;;;24.66;31.88;101724.31;5075112;28;20142;-8
2021/10/13 03:25:51;;;;;;;1.33;1.00;;;20.70;47.50;;;24.69;31.86;101725.00;5074991;28;20430;-8
2021/10/13 03:28:17;;;;;;;1.30;1.05;;;20.80;47.40;;;24.71;31.62;101722.22;5093395;28;20109;-8
2021/10/13 03:30:44;;;;;;;1.88;0.82;;;20.80;47.40;;;24.71;31.62;101727.56;5093018;28;20459;-8
2021/10/13 03:33:11;;;;;;;1.95;1.10;;;20.80;47.30;;;24.72;31.68;101731.94;5093035;28;20048;-8
2021/10/13 03:35:37;;;;;;;1.30;1.20;;;20.80;47.30;;;24.72;31.83;101723.94;5074405;28;20064;-8
2021/10/13 03:38:06;;;;;;;1.10;1.00;;;20.90;47.30;;;24.72;31.52;101719.44;5093009;28;20047;-8
2021/10/13 03:40:34;;;;;;;1.23;1.13;;;20.90;47.20;;;24.74;31.70;101727.34;5093450;28;20472;-8
2021/10/13 03:43:01;;;;;;;1.58;1.10;;;20.90;47.10;;;24.75;31.69;101731.75;5092941;28;20072;-8
2021/10/13 03:45:28;;;;;;;1.20;1.00;;;20.90;47.00;;;24.77;31.66;101733.38;5092927;28;20069;-8
2021/10/13 03:47:55;;;;;;;1.10;1.00;;;21.00;47.10;;;24.73;31.52;101731.84;5092809;28;20105;-8
2021/10/13 03:50:25;;;;;;;1.10;0.80;;;21.00;47.00;;;24.75;31.56;101755.81;5092853;28;20051;-8
2021/10/13 03:52:50;;;;;;;1.92;1.10;;;21.00;46.90;;;24.72;31.68;101746.16;5092833;28;20464;-7
2021/10/13 03:55:18;;;;;;;1.08;0.75;;;21.00;46.70;;;24.73;31.63;101749.72;5075210;28;20137;-8
2021/10/13 03:57:44;;;;;;;1.00;0.90;;;21.00;46.70;;;24.74;31.45;101748.75;5092859;28;20063;-8
2021/10/13 04:00:13;;;;;;;1.10;1.00;;;21.00;46.70;;;24.71;31.58;101744.47;5073532;28;20048;-8
2021/10/13 04:02:39;;;;;;;1.20;1.10;;;21.00;46.70;;;24.74;31.38;101751.41;5092280;28;20054;-8
2021/10/13 04:05:06;;;;;;;1.10;0.98;;;21.00;46.70;;;24.74;31.38;101754.09;5092444;28;20052;-8
2021/10/13 04:07:32;;;;;;;1.27;1.10;;;21.00;46.70;;;24.73;31.57;101749.72;5092746;28;20040;-8
2021/10/13 04:09:59;;;;;;;1.35;0.95;;;21.00;46.80;;;24.72;31.49;101751.53;5073267;28;20056;-8
2021/10/13 04:12:25;;;;;;;1.42;0.90;;;20.90;47.00;;;24.73;31.67;101760.44;5092309;28;20384;-8
2021/10/13 04:14:51;;;;;;;2.08;1.02;;;20.90;47.00;;;24.70;31.66;101753.44;5092505;28;20131;-8
2021/10/13 04:17:18;;;;;;;1.20;1.00;;;20.90;47.00;;;24.71;31.43;101755.16;5092416;28;20143;-8
2021/10/13 04:19:44;;;;;;;1.05;0.90;;;20.90;47.00;;;24.70;31.40;101757.94;5092311;28;20071;-7
2021/10/13 04:22:10;;;;;;;1.13;0.80;;;20.90;47.00;;;24.70;31.32;101758.78;5096259;28;20040;-8
2021/10/13 04:24:36;;;;;;;0.80;0.80;;;20.90;47.10;;;24.69;31.56;101750.88;5096338;28;20548;-8
2021/10/13 04:27:02;;;;;;;1.40;0.98;;;20.90;47.10;;;24.71;31.61;101751.66;5077893;28;20579;-8
2021/10/13 04:29:28;;;;;;;1.98;1.27;;;20.80;47.20;;;24.69;31.45;101750.88;5095911;28;20097;-8
2021/10/13 04:31:54;;;;;;;2.13;1.10;;;20.80;47.20;;;24.68;31.52;101746.50;5096101;28;20476;-8
2021/10/13 04:34:19;;;;;;;1.20;0.90;;;20.80;47.20;;;24.70;31.46;101756.13;5095800;28;20056;-8
2021/10/13 04:36:45;;;;;;;1.00;0.90;;;20.80;47.20;;;24.69;31.53;101749.06;5095964;28;20052;-8
2021/10/13 04:39:11;;;;;;;1.70;1.20;;;20.80;47.20;;;24.67;31.49;101744.75;5095877;28;20078;-8
2021/10/13 04:41:37;;;;;;;1.15;0.90;;;20.80;47.30;;;24.65;31.69;101738.66;5095666;28;20052;-8
2021/10/13 04:44:03;;;;;;;1.75;1.05;;;20.80;47.70;;;24.64;31.58;101742.28;5095670;28;20044;-8
2021/10/13 04:46:29;;;;;;;1.20;1.00;;;20.70;47.20;;;24.64;31.45;101742.28;5061123;28;20068;-8
2021/10/13 04:48:55;;;;;;;0.75;0.75;;;20.80;47.10;;;24.65;31.62;101744.00;5096147;28;20106;-8
2021/10/13 04:51:21;;;;;;;1.00;0.70;;;20.80;47.20;;;24.67;31.45;101747.44;5095864;28;20048;-8
2021/10/13 04:53:46;;;;;;;1.27;1.17;;;20.70;47.20;;;24.66;31.48;101743.03;5095534;28;20044;-8
2021/10/13 04:56:12;;;;;;;1.30;0.80;;;20.70;47.20;;;24.65;31.62;101750.19;5095630;28;20442;-8
2021/10/13 04:58:38;;;;;;;1.35;1.10;;;20.80;47.20;;;24.66;31.60;101749.25;5077684;28;20055;-8
2021/10/13 05:01:04;;;;;;;1.20;0.90;;;20.70;47.20;;;24.66;31.51;101756.41;5095403;28;20056;-8
2021/10/13 05:03:29;;;;;;;1.02;0.90;;;20.70;47.20;;;24.66;31.54;101745.69;5095956;28;20135;-8
2021/10/13 05:05:55;;;;;;;1.10;1.00;;;20.70;47.20;;;24.67;31.54;101752.78;5095312;28;20047;-8
2021/10/13 05:08:21;;;;;;;2.10;1.25;;;20.70;47.10;;;24.65;31.42;101749.34;5077380;28;20396;-8
2021/10/13 05:10:47;;;;;;;1.15;1.00;;;20.80;47.10;;;24.63;31.54;101743.25;5095179;28;20373;-8
2021/10/13 05:13:12;;;;;;;1.73;1.13;;;20.80;47.20;;;24.65;31.60;101747.53;5095135;28;20381;-8
2021/10/13 05:15:38;;;;;;;1.15;0.82;;;20.80;47.20;;;24.64;31.52;101744.94;5095121;28;20122;-8
2021/10/13 05:18:05;;;;;;;0.90;0.90;;;20.80;47.20;;;24.63;31.51;101746.78;5077631;28;20472;-8
2021/10/13 05:20:32;;;;;;;0.70;0.70;;;20.80;47.20;;;24.65;31.29;101744.84;5095233;28;20044;-8
2021/10/13 05:23:00;;;;;;;1.10;1.00;;;20.70;47.20;;;24.63;31.86;101749.44;5094969;28;20048;-8
2021/10/13 05:25:27;;;;;;;1.55;0.90;;;20.70;47.20;;;24.62;31.51;101747.72;5095068;28;20051;-8
2021/10/13 05:27:54;;;;;;;0.80;0.80;;;20.70;47.20;;;24.62;31.56;101747.72;5094923;28;20400;-8
2021/10/13 05:30:20;;;;;;;1.05;0.80;;;20.70;47.70;;;24.62;31.59;101753.06;5076869;28;20044;-8
2021/10/13 05:32:46;;;;;;;1.05;0.90;;;20.70;47.20;;;24.63;31.57;101753.94;5093941;28;20055;-8
2021/10/13 05:35:11;;;;;;;1.20;1.00;;;20.70;47.20;;;24.63;31.52;101761.97;5094941;28;20089;-8
2021/10/13 05:37:37;;;;;;;0.80;0.80;;;20.70;47.20;;;24.65;31.57;101766.25;5095044;28;20105;-8
2021/10/13 05:40:04;;;;;;;0.82;0.82;;;20.70;47.10;;;24.66;31.61;101769.78;5094766;28;20059;-8
2021/10/13 05:42:29;;;;;;;1.33;0.90;;;20.70;47.20;;;24.65;31.63;101771.59;5094656;28;20072;-8
2021/10/13 05:44:55;;;;;;;1.00;0.80;;;20.80;47.20;;;24.66;31.55;101775.13;5094731;28;20044;-8
2021/10/13 05:47:21;;;;;;;0.90;0.90;;;20.70;47.20;;;24.63;31.51;101764.66;5094524;28;20052;-8
2021/10/13 05:49:47;;;;;;;0.82;0.75;;;20.70;47.30;;;24.64;31.63;101769.00;5094460;28;20087;-8
2021/10/13 05:52:13;;;;;;;1.13;1.02;;;20.70;47.30;;;24.65;31.54;101771.59;5093637;28;20066;-8
2021/10/13 05:54:40;;;;;;;2.00;0.88;;;20.60;47.30;;;24.63;31.67;101778.88;5094909;28;20055;-8
2021/10/13 05:57:05;;;;;;;1.40;0.85;;;20.70;47.40;;;24.65;31.50;101782.28;5094187;28;20051;-8
2021/10/13 05:59:32;;;;;;;1.40;1.00;;;20.70;47.30;;;24.65;31.57;101782.28;5094414;28;20055;-8
2021/10/13 06:01:58;;;;;;;0.95;0.88;;;20.70;47.20;;;24.68;31.52;101782.09;5094481;28;20051;-8
2021/10/13 06:04:26;;;;;;;1.50;0.85;;;20.80;47.10;;;24.68;31.59;101786.59;5094752;28;20476;-8
2021/10/13 06:06:52;;;;;;;2.35;1.42;;;20.80;47.10;;;24.72;31.32;101788.13;5094187;28;20070;-8
2021/10/13 06:09:18;;;;;;;1.77;1.00;;;20.90;47.00;;;24.76;31.38;101792.31;5094068;28;20052;-8
2021/10/13 06:11:43;;;;;;;0.90;0.90;;;20.90;46.80;;;24.79;31.32;101794.78;5094212;28;20064;-8
2021/10/13 06:14:09;;;;;;;1.23;0.80;;;21.00;46.60;;;24.83;31.37;101796.31;5093846;28;20048;-8
2021/10/13 06:16:35;;;;;;;1.00;0.88;;;21.10;46.40;;;24.85;31.49;101797.06;5093773;28;20630;-8
2021/10/13 06:19:01;;;;;;;1.45;0.93;;;21.20;46.30;;;24.88;31.43;101804.91;5093825;28;20052;-8
2021/10/13 06:21:27;;;;;;;1.10;1.00;;;21.20;46.30;;;24.91;31.41;101804.72;5093810;28;20048;-9
2021/10/13 06:23:53;;;;;;;1.25;0.90;;;21.30;46.20;;;24.97;31.26;101806.13;5093806;28;20097;-8
2021/10/13 06:26:21;;;;;;;1.23;1.00;;;21.30;46.10;;;24.99;31.29;101804.19;5093862;28;20093;-8
2021/10/13 06:28:47;;;;;;;1.10;0.80;;;21.40;46.00;;;25.04;31.08;101804.78;5093790;28;20055;-8
2021/10/13 06:31:13;;;;;;;1.50;1.08;;;21.40;45.90;;;25.05;30.98;101805.66;5093698;28;20040;-8
2021/10/13 06:33:39;;;;;;;1.20;1.10;;;21.40;45.70;;;25.08;31.21;101814.34;5094090;28;20340;-8
2021/10/13 06:36:07;;;;;;;1.52;0.90;;;21.50;45.60;;;25.13;31.16;101817.56;5093987;28;20480;-8
2021/10/13 06:38:34;;;;;;;1.10;0.90;;;21.60;45.50;;;25.18;31.11;101829.81;5075543;28;20412;-8
2021/10/13 06:41:01;;;;;;;1.00;1.00;;;21.60;45.40;;;25.22;31.04;101834.00;5093788;28;20048;-8
2021/10/13 06:43:27;;;;;;;1.45;1.00;;;21.70;45.20;;;25.24;30.87;101826.72;5093634;28;20498;-8
2021/10/13 06:45:54;;;;;;;1.10;0.70;;;21.70;45.10;;;25.28;30.99;101833.63;5093984;28;20040;-8
2021/10/13 06:48:21;;;;;;;1.10;1.00;;;21.70;45.10;;;25.32;30.94;101833.31;5094074;28;20471;-8
2021/10/13 06:50:48;;;;;;;1.50;0.80;;;21.70;45.10;;;25.37;30.69;101840.19;5093641;28;20040;-8
2021/10/13 06:53:13;;;;;;;1.67;0.95;;;21.80;45.10;;;25.41;30.85;101844.38;5075429;28;20051;-8
2021/10/13 06:55:39;;;;;;;1.90;1.10;;;21.80;45.00;;;25.44;30.73;101845.06;5093061;28;20052;-8
2021/10/13 06:58:05;;;;;;;1.08;0.95;;;21.80;44.90;;;25.45;30.73;101840.56;5093420;28;20058;-8
2021/10/13 07:00:32;;;;;;;1.65;1.10;;;21.90;44.90;;;25.47;30.66;101843.97;5093347;28;20040;-8
2021/10/13 07:02:59;;;;;;;1.13;1.02;;;21.90;44.70;;;25.52;30.65;101848.06;5093385;28;20052;-8
2021/10/13 07:05:26;;;;;;;0.98;0.88;;;22.00;44.70;;;25.52;30.47;101845.38;5093448;28;20044;-8
2021/10/13 07:07:52;;;;;;;1.15;1.05;;;22.00;44.70;;;25.55;30.41;101849.69;5093106;28;20101;-12
2021/10/13 07:10:18;;;;;;;1.73;0.93;;;22.00;44.60;;;25.59;30.26;101847.66;5093382;28;20048;-9
2021/10/13 07:12:45;;;;;;;1.40;1.15;;;22.00;44.60;;;25.62;30.42;101847.47;5093141;28;20056;-9
2021/10/13 07:15:11;;;;;;;0.90;0.90;;;22.00;44.50;;;25.65;30.44;101858.84;5093241;28;20135;-9
2021/10/13 07:17:38;;;;;;;0.88;0.88;;;22.10;44.40;;;25.67;30.39;101853.38;5073329;28;20396;-9
2021/10/13 07:20:06;;;;;;;1.42;0.90;;;22.10;44.30;;;25.73;30.36;101862.81;5093224;28;20427;-9
2021/10/13 07:22:33;;;;;;;1.50;1.00;;;22.20;44.30;;;25.70;30.29;101846.00;5093165;28;20086;-9
2021/10/13 07:24:59;;;;;;;2.05;1.17;;;22.20;44.30;;;25.74;30.27;101852.00;5092866;28;20069;-9
2021/10/13 07:27:27;;;;;;;0.93;0.90;;;22.10;44.20;;;25.73;30.13;101857.47;5092987;28;20071;-9
2021/10/13 07:29:57;;;;;;;1.17;0.90;;;22.00;44.40;;;25.73;30.02;101858.34;5092742;28;20059;-9
2021/10/13 07:32:25;;;;;;;1.30;1.08;;;22.00;44.60;;;25.76;30.17;101870.66;5093219;28;20056;-9
2021/10/13 07:34:51;;;;;;;1.42;0.93;;;22.00;44.70;;;25.72;30.19;101867.31;5092878;28;20043;-9
2021/10/13 07:37:17;;;;;;;0.90;0.90;;;22.00;44.50;;;25.71;30.22;101870.97;5090299;28;20082;-9
2021/10/13 07:39:43;;;;;;;0.88;0.88;;;22.00;44.60;;;25.68;29.95;101873.84;5093184;28;20047;-9
2021/10/13 07:42:09;;;;;;;1.55;1.10;;;21.90;44.80;;;25.63;30.17;101878.66;5074317;28;20393;-9
2021/10/13 07:44:35;;;;;;;1.52;1.00;;;21.80;44.80;;;25.57;30.24;101863.84;5074038;28;20051;-9
2021/10/13 07:47:02;;;;;;;1.10;1.00;;;21.80;44.90;;;25.55;30.07;101859.56;5074294;28;20063;-9
2021/10/13 07:49:27;;;;;;;0.98;0.90;;;21.80;45.00;;;25.53;30.19;101873.03;5092631;28;20044;-9
2021/10/13 07:51:53;;;;;;;1.65;1.30;;;21.70;45.10;;;25.51;30.18;101872.28;5074480;28;20050;-9
2021/10/13 07:54:20;;;;;;;1.15;1.05;;;21.70;45.20;;;25.49;30.20;101877.75;5092769;28;20060;-9
2021/10/13 07:56:47;;;;;;;1.25;1.08;;;21.60;45.30;;;25.41;30.38;101874.72;5092008;28;20044;-9
2021/10/13 07:59:14;;;;;;;1.50;1.25;;;21.50;45.40;;;25.40;30.14;101872.97;5092539;28;20052;-9
2021/10/13 08:01:40;;;;;;;1.00;0.90;;;21.50;45.50;;;25.40;30.20;101881.00;5092419;28;20056;-9
2021/10/13 08:04:06;;;;;;;3.55;1.20;;;21.40;45.70;;;25.37;30.26;101875.84;5092451;28;20052;-9
2021/10/13 08:06:32;;;;;;;1.13;1.02;;;21.40;45.70;;;25.34;30.38;101876.03;5092652;28;20461;-9
2021/10/13 08:08:59;;;;;;;2.15;1.33;;;21.40;45.80;;;25.36;30.43;101883.97;5092348;28;20446;-9
2021/10/13 08:11:24;;;;;;;1.40;1.17;;;21.30;45.80;;;25.34;30.59;101873.38;5092425;28;20051;-9
2021/10/13 08:13:50;;;;;;;1.35;1.13;;;21.30;45.80;;;25.32;30.43;101870.78;5056088;28;20048;-8
2021/10/13 08:16:16;;;;;;;1.17;1.00;;;21.40;45.80;;;25.37;30.36;101875.00;5092250;28;20052;-9
2021/10/13 08:18:43;;;;;;;1.35;1.23;;;21.40;45.80;;;25.35;30.21;101868.91;5092364;28;20044;-9
2021/10/13 08:21:08;;;;;;;1.60;1.40;;;21.40;45.70;;;25.35;30.38;101863.53;5092060;28;20404;-9
2021/10/13 08:23:34;;;;;;;1.42;1.33;;;21.40;46.30;;;25.34;30.42;101865.34;5092325;28;20044;-9
2021/10/13 08:26:00;;;;;;;1.92;1.17;;;21.40;45.70;;;25.32;30.46;101868.09;5092283;28;20434;-9
2021/10/13 08:28:27;;;;;;;1.65;1.30;;;21.40;45.70;;;25.32;30.49;101875.28;5092071;28;20040;-9
2021/10/13 08:30:54;;;;;;;1.50;1.10;;;21.40;45.60;;;25.34;30.60;101873.38;5082344;28;20488;-16
2021/10/13 08:33:20;;;;;;;1.05;0.95;;;21.40;45.60;;;25.32;30.45;101868.09;5075702;28;20470;-10
2021/10/13 08:35:46;;;;;;;1.33;1.20;;;21.40;46.10;;;25.35;30.43;101868.91;5071739;28;20490;-9
2021/10/13 08:38:12;;;;;;;1.67;1.30;;;21.40;45.50;;;25.36;30.31;101875.94;5071720;28;20048;-9
2021/10/13 08:40:38;;;;;;;1.20;1.10;;;21.40;45.50;;;25.36;30.50;101879.50;5071832;28;20056;-9
2021/10/13 08:43:06;;;;;;;1.80;1.27;;;21.50;45.50;;;25.36;30.36;101887.53;5071647;28;20055;-9
2021/10/13 08:45:35;;;;;;;1.45;1.17;;;21.50;45.50;;;25.37;30.61;101896.41;5072226;28;20408;-9
2021/10/13 08:48:03;;;;;;;1.95;1.60;;;21.50;45.50;;;25.37;30.30;101886.56;5089215;28;20047;-9
2021/10/13 08:50:31;;;;;;;1.35;1.25;;;21.50;45.40;;;25.36;30.49;101889.34;5094562;28;20074;-9
2021/10/13 08:53:09;;;;;;;1.20;1.10;;;21.50;45.50;;;25.32;30.42;101886.00;5090329;28;20088;-16
2021/10/13 08:55:38;;;;;;;1.50;1.20;;;21.40;45.70;;;25.32;30.35;101892.19;5071493;28;20048;-9
2021/10/13 08:58:13;;;;;;;2.60;1.40;;;21.40;45.70;;;25.35;30.56;101899.19;5071639;28;20087;-9
2021/10/13 09:00:41;;;;;;;1.50;1.40;;;21.40;45.80;;;25.35;30.42;101893.00;5071497;28;20049;-9
2021/10/13 09:03:07;;;;;;;1.08;0.93;;;21.40;45.80;;;25.34;30.40;101892.09;5053316;28;20122;-9
2021/10/13 09:05:33;;;;;;;1.42;1.33;;;21.40;45.70;;;25.35;30.42;101891.16;5053202;28;20497;-9
2021/10/13 09:07:59;;;;;;;1.98;1.10;;;21.40;45.70;;;25.37;30.33;101896.41;5054509;28;20097;-8
2021/10/13 09:10:37;;;;;;;2.53;1.05;;;21.40;45.70;;;25.36;30.43;101906.28;5075092;28;20127;-9
2021/10/13 09:13:17;;;;;;;1.73;1.23;;;21.40;45.60;;;25.33;30.39;101891.25;5057003;28;20390;-9
2021/10/13 09:15:57;;;;;;;1.27;1.00;;;21.40;45.60;;;25.32;30.36;101894.88;5074351;28;20056;-8
2021/10/13 09:18:24;;;;;;;1.75;1.60;;;21.40;45.60;;;25.33;30.42;101896.59;5073200;28;20074;-9
2021/10/13 09:20:52;;;;;;;1.80;1.45;;;21.40;45.70;;;25.31;30.46;101898.53;5072156;28;20040;-8
2021/10/13 09:23:28;;;;;;;1.92;1.38;;;21.40;45.70;;;25.32;30.52;101904.75;5073769;28;20047;-8
2021/10/13 09:26:24;;;;;;;1.30;1.20;;;21.40;45.80;;;25.32;30.45;101896.72;5074380;28;20044;-8
2021/10/13 09:28:58;;;;;;;1.42;1.33;;;21.40;45.80;;;25.29;30.45;101897.78;5073050;28;20067;-9
2021/10/13 09:31:26;;;;;;;2.05;1.30;;;21.40;45.90;;;25.31;30.54;101900.38;5074332;28;20101;-9
2021/10/13 09:34:01;;;;;;;2.55;1.40;;;21.30;45.90;;;25.30;30.47;101893.28;5074641;28;20048;-9
2021/10/13 09:36:47;;;;;;;2.35;1.20;;;21.40;45.90;;;25.26;30.54;101889.94;5071240;28;20040;-8
2021/10/13 09:39:17;;;;;;;2.20;1.58;;;21.30;46.00;;;25.25;30.47;101895.34;5074704;28;20133;-9
2021/10/13 09:42:06;;;;;;;2.35;1.10;;;21.30;46.00;;;25.27;30.54;101893.47;5094678;28;20126;-9
2021/10/13 09:44:51;;;;;;;1.67;1.20;;;21.30;45.90;;;25.28;30.57;101895.19;5115076;28;20126;-9
2021/10/13 09:47:17;;;;;;;1.20;1.10;;;21.40;45.90;;;25.31;30.42;101900.38;5115147;28;20130;-8
2021/10/13 09:49:49;;;;;;;2.05;1.23;;;21.40;45.90;;;25.30;30.62;101901.31;5115046;28;20173;-9
2021/10/13 09:52:17;;;;;;;1.58;1.25;;;21.40;45.80;;;25.31;30.53;101901.22;5112023;28;20072;-9
2021/10/13 09:54:47;;;;;;;1.40;1.30;;;21.40;45.80;;;25.29;30.75;101900.47;5115158;28;20113;-9
2021/10/13 09:57:27;;;;;;;1.73;1.38;;;21.40;45.90;;;25.30;30.55;101899.47;5111370;28;20051;-9
2021/10/13 10:00:16;;;;;;;1.52;1.42;;;21.40;45.90;;;25.30;30.52;101898.63;5114885;28;20126;-9
2021/10/13 10:03:00;;;;;;;1.70;1.42;;;21.40;45.90;;;25.27;30.49;101890.78;5104062;28;20088;-9
2021/10/13 10:05:34;;;;;;;2.42;1.10;;;21.30;46.10;;;25.26;30.66;101894.38;5095650;28;20419;-9
2021/10/13 10:08:10;;;;;;;1.98;1.58;;;21.20;46.20;;;25.22;30.75;101892.88;5114650;28;20048;-9
2021/10/13 10:11:02;;;;;;;1.73;1.20;;;21.20;46.20;;;25.26;30.58;101902.41;5114393;28;20048;-9
2021/10/13 10:13:41;;;;;;;1.70;1.40;;;21.30;46.10;;;25.23;30.63;101903.47;5114160;28;20047;-9
2021/10/13 10:16:10;;;;;;;2.28;1.48;;;21.30;46.20;;;25.22;30.60;101893.72;5113916;28;20044;-9
2021/10/13 10:18:39;;;;;;;1.42;1.30;;;21.30;46.10;;;25.25;30.69;101906.91;5113676;28;20048;-9
2021/10/13 10:21:23;;;;;;;1.90;1.50;;;21.30;46.20;;;25.26;30.71;101906.00;5114248;28;20055;-9
2021/10/13 10:24:25;;;;;;;1.77;1.20;;;21.30;46.20;;;25.24;30.66;101910.56;5091128;28;20385;-10
2021/10/13 10:26:52;;;;;;;2.45;1.27;;;21.30;46.20;;;25.24;30.61;101910.56;5069874;28;20569;-9
2021/10/13 10:29:18;;;;;;;1.35;1.23;;;21.30;46.20;;;25.27;30.65;101917.56;5092661;28;20048;-9